KBUF/BUF METAR and TAF weather

Enter ICAO airport designator
Station Type Date Time Source
KBUF METAR 2019/02/23 16:54 UTC NOAA

KBUF 231654Z 06010KT 10SM FEW140 OVC250 02/M04 A3024 RMK AO2 SLP250 T00221044


Station Type Date Time Source
KBUF Decoded METAR 2019/02/23 16:54 UTC NOAA

GREATER BUFFALO INTERNATIONAL AIRPORT , NY, United States (KBUF) 42-56N 078-44W 225M
Feb 23, 2019 - 11:54 AM EST / 2019.02.23 1654 UTC
Wind: from the ENE (060 degrees) at 12 MPH (10 KT):0
Visibility: 10 mile(s):0
Sky conditions: overcast
Temperature: 36.0 F (2.2 C)
Dew Point: 24.1 F (-4.4 C)
Relative Humidity: 61%
Pressure (altimeter): 30.24 in. Hg (1024 hPa)
ob: KBUF 231654Z 06010KT 10SM FEW140 OVC250 02/M04 A3024 RMK AO2 SLP250 T00221044
cycle: 17

Station Type Date Time Source
KBUF TAF 2019/02/23 15:09 UTC NOAA

TAF
AMD KBUF 231506Z 2315/2412 11007KT P6SM OVC250
FM232300 13008KT P6SM BKN040
FM240400 16010KT P6SM VCSH OVC035
FM240700 16014G22KT 6SM -SHRA OVC025
FM241000 18018G26KT 6SM -SHRA OVC025 WS020/18050KT


Example: see airport list